createdAt,value
2022-09-01T00:00:30.123Z,16.02
2022-09-01T00:01:28.400Z,16.34
2022-09-01T00:02:29.475Z,15.53
2022-09-01T00:03:26.960Z,17.45
2022-09-01T00:04:27.308Z,18.47
2022-09-01T00:05:24.777Z,17.25
2022-09-01T00:06:24.084Z,16.52
2022-09-01T00:07:21.543Z,17.78
2022-09-01T00:08:19.037Z,17.33
2022-09-01T00:09:18.960Z,19.15
2022-09-01T00:10:16.484Z,17.99
2022-09-01T00:11:13.888Z,17.81
2022-09-01T00:12:11.390Z,19.18
2022-09-01T00:13:08.856Z,19.56
2022-09-01T00:14:12.451Z,20.00
2022-09-01T00:15:25.611Z,18.73
2022-09-01T00:16:23.590Z,19.50
2022-09-01T00:17:21.400Z,19.90
2022-09-01T00:18:19.018Z,20.30
2022-09-01T00:19:16.462Z,20.04
2022-09-01T00:20:18.236Z,21.83
2022-09-01T00:21:20.321Z,19.72
2022-09-01T00:22:17.813Z,19.62
2022-09-01T00:23:15.170Z,19.91
2022-09-01T00:24:14.029Z,19.07
2022-09-01T00:25:11.473Z,17.72
2022-09-01T00:26:09.209Z,18.04
2022-09-01T00:27:06.754Z,18.67
2022-09-01T00:28:05.159Z,19.38
2022-09-01T00:29:03.051Z,19.61
2022-09-01T00:30:00.537Z,18.88
2022-09-01T00:30:58.729Z,19.83
2022-09-01T00:31:56.121Z,19.58
2022-09-01T00:32:53.469Z,19.20
2022-09-01T00:33:51.081Z,19.67
2022-09-01T00:34:48.541Z,19.12
2022-09-01T00:35:46.097Z,18.94
2022-09-01T00:36:43.541Z,19.86
2022-09-01T00:37:40.981Z,17.96
2022-09-01T00:38:38.533Z,18.39
2022-09-01T00:39:36.156Z,18.73
2022-09-01T00:40:33.728Z,19.16
2022-09-01T00:41:32.739Z,19.60
2022-09-01T00:42:30.116Z,18.92
2022-09-01T00:43:39.567Z,18.77
2022-09-01T00:44:39.346Z,19.24
2022-09-01T00:45:36.817Z,19.69
2022-09-01T00:46:36.826Z,18.15
2022-09-01T00:47:44.765Z,19.53
2022-09-01T00:48:43.113Z,18.69
2022-09-01T00:49:43.581Z,19.06
2022-09-01T00:50:42.139Z,18.72
2022-09-01T00:51:41.273Z,18.19
2022-09-01T00:52:41.591Z,19.15
2022-09-01T00:53:42.470Z,18.42
2022-09-01T00:54:43.764Z,18.90
2022-09-01T00:55:41.846Z,18.89
2022-09-01T00:56:41.868Z,19.32
2022-09-01T00:57:45.523Z,20.11
2022-09-01T00:58:43.257Z,20.31
2022-09-01T00:59:46.046Z,20.79
2022-09-01T01:00:47.141Z,20.62
2022-09-01T01:01:44.768Z,20.33
2022-09-01T01:02:44.974Z,22.06
2022-09-01T01:03:44.562Z,20.65
2022-09-01T01:04:43.790Z,20.75
2022-09-01T01:05:46.806Z,20.79
2022-09-01T01:06:49.716Z,19.65
2022-09-01T01:07:47.701Z,20.78
2022-09-01T01:09:00.512Z,20.55
2022-09-01T01:09:58.051Z,21.44
2022-09-01T01:10:55.465Z,22.29
2022-09-01T01:11:53.029Z,22.40
2022-09-01T01:12:51.735Z,21.63
2022-09-01T01:14:11.979Z,21.13
2022-09-01T01:15:11.346Z,21.65
2022-09-01T01:16:09.267Z,21.58
2022-09-01T01:17:06.801Z,22.38
2022-09-01T01:18:04.197Z,21.68
2022-09-01T01:19:01.568Z,21.70
2022-09-01T01:20:17.907Z,22.41
2022-09-01T01:21:37.954Z,21.66
2022-09-01T01:22:53.806Z,22.68
2022-09-01T01:24:07.210Z,22.33
2022-09-01T01:25:04.805Z,22.82
2022-09-01T01:26:02.202Z,23.26
2022-09-01T01:27:00.221Z,22.68
2022-09-01T01:28:18.697Z,22.05
2022-09-01T01:29:17.763Z,21.11
2022-09-01T01:30:18.195Z,20.55
2022-09-01T01:31:18.617Z,19.45
2022-09-01T01:32:18.238Z,19.33
2022-09-01T01:33:15.697Z,18.84
2022-09-01T01:34:15.106Z,18.89
2022-09-01T01:35:14.818Z,18.55
2022-09-01T01:36:17.399Z,19.89
2022-09-01T01:37:14.850Z,20.35
2022-09-01T01:38:12.837Z,19.92
2022-09-01T01:39:12.639Z,20.09
2022-09-01T01:40:15.664Z,20.37
2022-09-01T01:41:14.402Z,22.15
2022-09-01T01:42:12.348Z,21.38
2022-09-01T01:43:11.578Z,21.44
2022-09-01T01:44:09.265Z,20.56
2022-09-01T01:45:08.193Z,19.80
2022-09-01T01:46:08.269Z,18.89
2022-09-01T01:47:12.895Z,20.16
2022-09-01T01:48:10.794Z,19.93
2022-09-01T01:49:08.213Z,20.10
2022-09-01T01:50:09.313Z,19.52
2022-09-01T01:51:06.987Z,19.31
2022-09-01T01:52:04.729Z,20.42
2022-09-01T01:53:10.813Z,19.24
2022-09-01T01:54:08.973Z,18.61
2022-09-01T01:55:12.773Z,18.40
2022-09-01T01:56:11.667Z,19.36
2022-09-01T01:57:09.194Z,19.34
2022-09-01T01:58:12.231Z,18.10
2022-09-01T01:59:11.789Z,18.12
2022-09-01T02:00:11.358Z,18.74
2022-09-01T02:01:12.673Z,19.13
2022-09-01T02:02:12.927Z,19.19
2022-09-01T02:03:12.811Z,18.64
2022-09-01T02:04:12.043Z,19.52
2022-09-01T02:05:09.798Z,19.37
2022-09-01T02:06:09.857Z,18.31
2022-09-01T02:07:12.035Z,18.89
2022-09-01T02:08:10.802Z,19.59
2022-09-01T02:09:08.346Z,19.62
2022-09-01T02:10:05.945Z,19.86
2022-09-01T02:11:05.957Z,20.30
2022-09-01T02:12:03.511Z,20.35
2022-09-01T02:13:07.291Z,19.95
2022-09-01T02:14:06.657Z,19.10
2022-09-01T02:15:07.367Z,19.55
2022-09-01T02:16:07.853Z,20.22
2022-09-01T02:17:06.331Z,19.84
2022-09-01T02:18:05.120Z,19.81
2022-09-01T02:19:04.259Z,19.17
2022-09-01T02:20:01.711Z,19.94
2022-09-01T02:20:59.139Z,19.74
2022-09-01T02:21:56.690Z,20.15
2022-09-01T02:22:55.470Z,21.19
2022-09-01T02:24:01.459Z,21.38
2022-09-01T02:25:01.005Z,19.90
2022-09-01T02:26:16.215Z,20.21
2022-09-01T02:27:15.786Z,21.62
2022-09-01T02:28:18.055Z,22.44
2022-09-01T02:29:21.360Z,24.50
2022-09-01T02:30:19.519Z,26.24
2022-09-01T02:31:21.018Z,26.07
2022-09-01T02:32:22.210Z,25.55
2022-09-01T02:33:20.127Z,25.37
2022-09-01T02:34:18.132Z,25.80
2022-09-01T02:35:16.703Z,26.05
2022-09-01T02:36:15.920Z,25.43
2022-09-01T02:37:13.337Z,26.03
2022-09-01T02:38:13.948Z,25.66
2022-09-01T02:39:11.415Z,25.63
2022-09-01T02:40:13.205Z,26.75
2022-09-01T02:41:12.121Z,26.28
2022-09-01T02:42:10.568Z,25.78
2022-09-01T02:43:08.503Z,26.07
2022-09-01T02:44:11.712Z,25.90
2022-09-01T02:45:12.126Z,25.41
2022-09-01T02:46:09.658Z,24.79
2022-09-01T02:47:09.305Z,25.13
2022-09-01T02:48:11.518Z,24.35
2022-09-01T02:49:23.118Z,24.45
2022-09-01T02:50:22.594Z,24.42
2022-09-01T02:51:21.232Z,24.34
2022-09-01T02:52:20.769Z,24.67
2022-09-01T02:53:19.902Z,25.86
2022-09-01T02:54:17.674Z,24.88
2022-09-01T02:55:22.306Z,24.16
2022-09-01T02:56:25.440Z,24.97
2022-09-01T02:57:24.534Z,25.00
2022-09-01T02:58:24.917Z,24.84
2022-09-01T02:59:25.112Z,25.59
2022-09-01T03:00:29.061Z,25.57
2022-09-01T03:01:29.721Z,24.85
2022-09-01T03:02:28.991Z,23.88
2022-09-01T03:03:26.498Z,24.50
2022-09-01T03:04:24.581Z,23.87
2022-09-01T03:05:27.028Z,22.88
2022-09-01T03:06:24.878Z,22.08
2022-09-01T03:07:23.990Z,22.26
2022-09-01T03:08:22.196Z,23.64
2022-09-01T03:09:19.621Z,24.22
2022-09-01T03:10:17.581Z,24.49
2022-09-01T03:11:15.106Z,23.75
2022-09-01T03:12:12.475Z,22.83
2022-09-01T03:13:17.831Z,24.16
2022-09-01T03:14:15.783Z,23.13
2022-09-01T03:15:13.344Z,23.78
2022-09-01T03:16:11.234Z,24.11
2022-09-01T03:17:08.704Z,23.23
2022-09-01T03:18:07.779Z,23.97
2022-09-01T03:19:09.596Z,23.72
2022-09-01T03:20:07.495Z,23.27
2022-09-01T03:21:05.329Z,24.72
2022-09-01T03:22:02.831Z,23.66
2022-09-01T03:23:00.845Z,24.18
2022-09-01T03:23:58.369Z,25.37
2022-09-01T03:24:56.423Z,23.47
2022-09-01T03:25:53.990Z,24.88
2022-09-01T03:26:51.678Z,24.15
2022-09-01T03:27:49.125Z,23.13
2022-09-01T03:28:47.228Z,22.77
2022-09-01T03:29:44.633Z,22.81
2022-09-01T03:30:47.221Z,22.41
2022-09-01T03:31:44.650Z,22.28
2022-09-01T03:32:42.162Z,21.28
2022-09-01T03:33:39.813Z,21.60
2022-09-01T03:34:37.200Z,21.38
2022-09-01T03:35:34.652Z,22.51
2022-09-01T03:36:33.472Z,22.91
2022-09-01T03:37:30.866Z,23.26
2022-09-01T03:38:28.764Z,23.33
2022-09-01T03:39:26.232Z,22.95
2022-09-01T03:40:23.738Z,21.86
2022-09-01T03:41:25.115Z,21.37
2022-09-01T03:42:26.018Z,21.01
2022-09-01T03:43:24.961Z,22.71
2022-09-01T03:44:22.386Z,22.82
2022-09-01T03:45:20.503Z,24.04
2022-09-01T03:46:24.436Z,23.53
2022-09-01T03:47:22.209Z,23.50
2022-09-01T03:48:20.628Z,22.96
2022-09-01T03:49:25.116Z,24.02
2022-09-01T03:50:25.078Z,23.35
2022-09-01T03:51:24.009Z,23.67
2022-09-01T03:52:30.084Z,23.09
2022-09-01T03:53:27.465Z,22.08
2022-09-01T03:54:30.316Z,23.19
2022-09-01T03:55:31.157Z,26.79
2022-09-01T03:56:29.184Z,26.39
2022-09-01T03:57:28.577Z,28.02
2022-09-01T03:58:29.925Z,27.01
2022-09-01T03:59:30.037Z,26.69
2022-09-01T04:00:30.082Z,25.41
2022-09-01T04:01:38.022Z,26.45
2022-09-01T04:02:35.666Z,26.26
2022-09-01T04:03:34.641Z,24.33
2022-09-01T04:04:33.624Z,25.17
2022-09-01T04:05:33.956Z,26.10
2022-09-01T04:06:32.345Z,25.81
2022-09-01T04:07:30.330Z,26.28
2022-09-01T04:08:32.652Z,25.42
2022-09-01T04:09:32.780Z,24.05
2022-09-01T04:10:35.029Z,24.66
2022-09-01T04:11:33.562Z,24.75
2022-09-01T04:12:31.123Z,26.19
2022-09-01T04:13:30.614Z,26.52
2022-09-01T04:14:30.682Z,25.89
2022-09-01T04:15:29.880Z,26.95
2022-09-01T04:16:48.166Z,27.43
2022-09-01T04:18:04.527Z,27.67
2022-09-01T04:19:01.903Z,28.66
2022-09-01T04:19:59.330Z,28.28
2022-09-01T04:20:58.444Z,27.28
2022-09-01T04:21:57.531Z,26.88
2022-09-01T04:22:55.421Z,27.42
2022-09-01T04:23:52.864Z,27.02
2022-09-01T04:24:50.333Z,26.18
2022-09-01T04:25:50.453Z,26.84
2022-09-01T04:26:49.698Z,26.00
2022-09-01T04:27:47.721Z,27.30
2022-09-01T04:28:47.146Z,26.64
2022-09-01T04:29:46.847Z,26.20
2022-09-01T04:30:45.248Z,26.07
2022-09-01T04:31:45.257Z,26.87
2022-09-01T04:32:44.433Z,27.11
2022-09-01T04:33:44.639Z,27.24
2022-09-01T04:34:42.208Z,27.84
2022-09-01T04:35:40.263Z,26.70
2022-09-01T04:36:38.540Z,25.66
2022-09-01T04:37:36.582Z,24.91
2022-09-01T04:38:37.156Z,23.55
2022-09-01T04:39:36.520Z,23.96
2022-09-01T04:40:40.339Z,23.67
2022-09-01T04:41:40.461Z,23.96
2022-09-01T04:42:37.840Z,23.95
2022-09-01T04:43:35.910Z,23.10
2022-09-01T04:44:33.274Z,23.14
2022-09-01T04:45:31.860Z,25.29
2022-09-01T04:46:31.276Z,24.00
2022-09-01T04:47:35.659Z,23.28
2022-09-01T04:48:34.859Z,24.32
2022-09-01T04:49:34.343Z,24.13
2022-09-01T04:50:32.938Z,23.68
2022-09-01T04:51:31.137Z,24.58
2022-09-01T04:52:28.521Z,23.62
2022-09-01T04:53:28.588Z,23.06
2022-09-01T04:54:27.070Z,23.48
2022-09-01T04:55:24.808Z,24.49
2022-09-01T04:56:23.245Z,23.91
2022-09-01T04:57:21.213Z,22.79
2022-09-01T04:58:19.329Z,24.25
2022-09-01T04:59:20.422Z,23.55
2022-09-01T05:00:23.628Z,22.30
2022-09-01T05:01:23.177Z,23.57
2022-09-01T05:02:27.242Z,22.27
2022-09-01T05:03:24.983Z,22.72
2022-09-01T05:04:24.484Z,23.06
2022-09-01T05:05:22.911Z,23.30
2022-09-01T05:06:20.332Z,22.57
2022-09-01T05:07:17.747Z,22.79
2022-09-01T05:08:23.137Z,22.32
2022-09-01T05:09:21.255Z,22.14
2022-09-01T05:10:22.613Z,22.40
2022-09-01T05:11:21.046Z,22.63
2022-09-01T05:12:23.812Z,23.45
2022-09-01T05:13:23.637Z,24.49
2022-09-01T05:14:23.152Z,24.70
2022-09-01T05:15:21.080Z,23.06
2022-09-01T05:16:24.827Z,22.62
2022-09-01T05:17:26.052Z,22.72
2022-09-01T05:18:24.309Z,21.92
2022-09-01T05:19:23.011Z,22.76
2022-09-01T05:20:21.631Z,24.55
2022-09-01T05:21:22.593Z,24.54
2022-09-01T05:22:22.375Z,24.88
2022-09-01T05:23:20.677Z,25.02
2022-09-01T05:24:21.713Z,23.49
2022-09-01T05:25:19.118Z,23.51
2022-09-01T05:26:18.995Z,23.85
2022-09-01T05:27:18.126Z,23.86
2022-09-01T05:28:19.506Z,24.08
2022-09-01T05:29:17.938Z,23.86
2022-09-01T05:30:18.092Z,22.63
2022-09-01T05:31:19.869Z,22.84
2022-09-01T05:32:17.546Z,23.78
2022-09-01T05:33:21.811Z,22.86
2022-09-01T05:34:23.094Z,21.20
2022-09-01T05:35:20.615Z,21.52
2022-09-01T05:36:20.246Z,21.74
2022-09-01T05:37:17.628Z,21.77
2022-09-01T05:38:15.690Z,21.62
2022-09-01T05:39:13.138Z,21.98
2022-09-01T05:40:16.312Z,20.99
2022-09-01T05:41:15.634Z,22.08
2022-09-01T05:42:13.048Z,23.95
2022-09-01T05:43:13.499Z,24.39
2022-09-01T05:44:11.365Z,23.79
2022-09-01T05:45:11.774Z,23.86
2022-09-01T05:46:09.170Z,26.80
2022-09-01T05:47:09.713Z,26.24
2022-09-01T05:48:12.633Z,24.85
2022-09-01T05:49:16.206Z,24.78
2022-09-01T05:50:16.660Z,25.17
2022-09-01T05:51:42.572Z,26.27
2022-09-01T05:52:38.242Z,26.69
2022-09-01T05:53:36.189Z,25.65
2022-09-01T05:54:33.945Z,25.59
2022-09-01T05:55:35.569Z,25.54
2022-09-01T05:56:33.935Z,25.58
2022-09-01T05:57:35.492Z,24.41
2022-09-01T05:59:54.070Z,22.79
2022-09-01T06:00:53.807Z,23.60
2022-09-01T06:01:51.266Z,24.47
2022-09-01T06:02:49.029Z,24.75
2022-09-01T06:03:46.535Z,25.44
2022-09-01T06:04:44.396Z,25.74
2022-09-01T06:05:42.354Z,25.46
2022-09-01T06:07:01.709Z,26.44
2022-09-01T06:07:59.185Z,26.02
2022-09-01T06:08:58.924Z,27.45
2022-09-01T06:09:57.056Z,27.92
2022-09-01T06:10:54.675Z,27.58
2022-09-01T06:11:53.108Z,27.84
2022-09-01T06:12:54.007Z,26.23
2022-09-01T06:13:55.389Z,26.35
2022-09-01T06:14:54.529Z,28.12
2022-09-01T06:15:58.308Z,27.84
2022-09-01T06:16:56.420Z,29.78
2022-09-01T06:17:54.044Z,29.13
2022-09-01T06:18:55.266Z,28.41
2022-09-01T06:19:56.375Z,28.80
2022-09-01T06:20:55.161Z,27.58
2022-09-01T06:21:53.462Z,26.79
2022-09-01T06:22:53.215Z,26.90
2022-09-01T06:23:54.068Z,26.69
2022-09-01T06:24:56.936Z,27.68
2022-09-01T06:25:55.685Z,26.21
2022-09-01T06:26:54.938Z,26.68
2022-09-01T06:27:52.537Z,27.21
2022-09-01T06:28:55.081Z,28.17
2022-09-01T06:29:58.286Z,27.73
2022-09-01T06:30:57.335Z,26.98
2022-09-01T06:31:54.684Z,27.56
2022-09-01T06:32:53.275Z,27.33
2022-09-01T06:33:54.266Z,27.17
2022-09-01T06:34:51.779Z,26.13
2022-09-01T06:35:49.177Z,25.66
2022-09-01T06:36:48.626Z,26.91
2022-09-01T06:37:47.248Z,26.75
2022-09-01T06:38:44.958Z,26.78
2022-09-01T06:39:42.416Z,26.61
2022-09-01T06:40:42.240Z,27.30
2022-09-01T06:41:39.694Z,29.37
2022-09-01T06:42:38.053Z,29.86
2022-09-01T06:43:36.624Z,28.77
2022-09-01T06:44:40.339Z,27.77
2022-09-01T06:45:42.773Z,27.76
2022-09-01T06:46:40.452Z,28.43
2022-09-01T06:47:37.843Z,27.02
2022-09-01T06:48:35.934Z,27.57
2022-09-01T06:49:34.795Z,28.34
2022-09-01T06:51:51.837Z,29.84
2022-09-01T06:54:21.729Z,28.28
2022-09-01T06:55:19.138Z,26.47
2022-09-01T06:56:18.723Z,64.36
2022-09-01T06:58:33.564Z,45.26
2022-09-01T06:59:34.773Z,30.33
2022-09-01T07:00:33.150Z,32.32
2022-09-01T07:01:31.543Z,37.84
2022-09-01T07:02:30.362Z,34.01
2022-09-01T07:03:32.169Z,29.10
2022-09-01T07:04:31.410Z,29.30
2022-09-01T07:08:13.492Z,27.71
2022-09-01T07:09:20.437Z,27.14
2022-09-01T07:10:23.044Z,27.14
2022-09-01T07:14:21.285Z,26.31
2022-09-01T07:16:52.177Z,27.47
2022-09-01T07:17:52.434Z,26.54
2022-09-01T07:18:58.710Z,26.76
2022-09-01T07:19:56.274Z,27.08
2022-09-01T07:21:38.873Z,27.79
2022-09-01T07:22:35.827Z,29.24
2022-09-01T07:23:46.306Z,27.79
2022-09-01T07:24:46.189Z,26.94
2022-09-01T07:26:06.124Z,28.66
2022-09-01T07:27:10.892Z,28.83
2022-09-01T07:28:08.932Z,27.43
2022-09-01T07:29:07.003Z,27.99
2022-09-01T07:30:08.656Z,26.09
2022-09-01T07:32:44.142Z,26.83
2022-09-01T07:33:54.196Z,27.29
2022-09-01T07:34:52.386Z,26.79
2022-09-01T07:38:47.272Z,28.28
2022-09-01T07:39:49.903Z,26.40
2022-09-01T07:42:58.903Z,29.66
2022-09-01T07:43:32.653Z,27.10
2022-09-01T07:44:33.479Z,27.33
2022-09-01T07:45:30.928Z,25.56
2022-09-01T07:46:44.417Z,26.19
2022-09-01T07:47:57.965Z,25.31
2022-09-01T07:49:29.568Z,26.68
2022-09-01T07:50:37.545Z,26.48
2022-09-01T07:51:36.374Z,25.56
2022-09-01T07:52:35.985Z,24.73
2022-09-01T07:53:36.133Z,23.84
2022-09-01T07:54:36.207Z,23.81
2022-09-01T07:55:33.735Z,22.77
2022-09-01T07:56:31.254Z,23.09
2022-09-01T07:57:28.616Z,24.19
2022-09-01T07:58:28.355Z,23.09
2022-09-01T07:59:27.915Z,22.97
2022-09-01T08:00:25.831Z,23.89
2022-09-01T08:01:28.948Z,24.57
2022-09-01T08:02:28.125Z,22.88
2022-09-01T08:03:25.742Z,23.09
2022-09-01T08:04:23.448Z,23.68
2022-09-01T08:05:27.254Z,22.78
2022-09-01T08:06:27.245Z,22.14
2022-09-01T08:07:25.491Z,21.79
2022-09-01T08:08:28.753Z,22.39
2022-09-01T08:09:37.539Z,23.77
2022-09-01T08:10:40.314Z,24.28
2022-09-01T08:12:01.143Z,23.99
2022-09-01T08:12:56.879Z,23.18
2022-09-01T08:13:55.898Z,23.37
2022-09-01T08:16:18.562Z,23.81
2022-09-01T08:17:18.065Z,24.25
2022-09-01T08:18:48.099Z,23.03
2022-09-01T08:19:47.111Z,23.88
2022-09-01T08:20:48.316Z,24.05
2022-09-01T08:21:45.712Z,23.58
2022-09-01T08:22:43.092Z,22.34
2022-09-01T08:23:41.574Z,21.95
2022-09-01T08:24:38.956Z,22.24
2022-09-01T08:25:36.981Z,20.52
2022-09-01T08:26:34.342Z,20.47
2022-09-01T08:27:32.870Z,19.77
2022-09-01T08:28:30.354Z,19.42
2022-09-01T08:29:27.801Z,18.55
2022-09-01T08:30:25.455Z,18.57
2022-09-01T08:31:24.008Z,19.04
2022-09-01T08:32:21.695Z,19.30
2022-09-01T08:33:19.044Z,20.78
2022-09-01T08:34:17.113Z,19.62
2022-09-01T08:35:16.297Z,20.21
2022-09-01T08:36:14.855Z,18.89
2022-09-01T08:37:12.248Z,19.20
2022-09-01T08:38:10.065Z,18.60
2022-09-01T08:39:07.555Z,18.10
2022-09-01T08:40:05.982Z,18.37
2022-09-01T08:41:06.749Z,18.85
2022-09-01T08:42:13.168Z,18.81
2022-09-01T08:43:15.631Z,19.05
2022-09-01T08:44:22.447Z,19.38
2022-09-01T08:45:40.112Z,17.46
2022-09-01T08:46:42.368Z,16.92
2022-09-01T08:48:04.770Z,16.53
2022-09-01T08:50:21.064Z,16.81
2022-09-01T08:51:25.681Z,15.51
2022-09-01T08:52:32.946Z,15.26
2022-09-01T08:53:45.462Z,16.04
2022-09-01T08:54:46.840Z,14.86
2022-09-01T08:55:49.463Z,15.56
2022-09-01T08:56:47.908Z,14.37
2022-09-01T08:57:46.013Z,15.35
2022-09-01T08:58:44.026Z,15.63
2022-09-01T09:13:02.307Z,13.73
2022-09-01T09:13:59.641Z,14.57
2022-09-01T09:15:11.545Z,15.32
2022-09-01T09:16:17.944Z,14.37
2022-09-01T09:17:20.087Z,14.69
2022-09-01T09:18:39.938Z,14.12
2022-09-01T09:19:40.899Z,12.20
2022-09-01T09:20:38.687Z,12.58
2022-09-01T09:21:49.797Z,12.02
2022-09-01T09:22:48.980Z,11.34
2022-09-01T09:23:48.965Z,11.68
2022-09-01T09:24:56.659Z,12.80
2022-09-01T09:25:54.095Z,12.71
2022-09-01T09:26:53.278Z,13.12
2022-09-01T09:28:00.541Z,12.42
2022-09-01T09:28:58.217Z,11.82
2022-09-01T09:30:04.341Z,11.00
2022-09-01T09:31:24.201Z,11.46
2022-09-01T09:32:35.144Z,10.98
2022-09-01T09:33:52.163Z,11.83
2022-09-01T09:34:51.085Z,11.75
2022-09-01T09:35:48.682Z,12.73
2022-09-01T09:36:53.836Z,12.59
2022-09-01T09:37:52.752Z,11.57
2022-09-01T09:39:04.442Z,11.50
2022-09-01T09:40:16.530Z,12.17
2022-09-01T09:41:26.632Z,11.78
2022-09-01T09:42:33.988Z,11.65
2022-09-01T09:43:36.578Z,11.63
2022-09-01T09:44:34.491Z,11.25
2022-09-01T09:45:34.877Z,10.70
2022-09-01T09:46:32.306Z,10.90
2022-09-01T09:47:43.892Z,11.40
2022-09-01T09:48:42.002Z,11.00
2022-09-01T09:49:44.242Z,11.22
2022-09-01T09:50:44.312Z,11.30
2022-09-01T09:51:48.518Z,11.24
2022-09-01T09:52:47.970Z,10.82
2022-09-01T09:53:45.485Z,11.17
2022-09-01T09:55:07.500Z,11.18
2022-09-01T09:56:17.430Z,11.22
2022-09-01T09:57:16.289Z,10.85
2022-09-01T09:58:13.843Z,11.49
2022-09-01T09:59:57.044Z,11.48
2022-09-01T10:01:15.315Z,10.33
2022-09-01T10:02:15.870Z,10.27
2022-09-01T10:03:13.565Z,10.98
2022-09-01T10:04:11.111Z,10.66
2022-09-01T10:05:26.876Z,11.30
2022-09-01T10:06:36.054Z,11.63
2022-09-01T10:07:37.428Z,11.70
2022-09-01T10:08:38.216Z,11.57
2022-09-01T10:09:38.350Z,10.91
2022-09-01T10:10:56.358Z,10.43
2022-09-01T10:11:58.213Z,10.71
2022-09-01T10:12:57.302Z,10.51
2022-09-01T10:13:55.192Z,11.02
2022-09-01T10:15:04.698Z,11.02
2022-09-01T10:16:21.988Z,10.58
2022-09-01T10:17:25.885Z,11.83
2022-09-01T10:18:31.085Z,11.06
2022-09-01T10:19:35.576Z,11.31
2022-09-01T10:20:34.877Z,10.77
2022-09-01T10:21:37.764Z,11.86
2022-09-01T10:22:37.808Z,11.95
2022-09-01T10:23:38.724Z,11.65
2022-09-01T10:24:39.095Z,11.60
2022-09-01T10:25:44.493Z,12.10
2022-09-01T10:26:48.022Z,12.16
2022-09-01T10:27:49.060Z,11.04
2022-09-01T10:28:56.206Z,11.92
2022-09-01T10:30:19.567Z,11.57
2022-09-01T10:31:18.151Z,11.15
2022-09-01T10:32:34.960Z,10.85
2022-09-01T10:33:37.094Z,11.37
2022-09-01T10:34:37.458Z,10.94
2022-09-01T10:35:39.786Z,11.15
2022-09-01T10:36:40.518Z,10.55
2022-09-01T10:37:39.323Z,10.30
2022-09-01T10:38:36.980Z,10.41
2022-09-01T10:39:56.411Z,11.18
2022-09-01T10:41:16.045Z,11.12
2022-09-01T10:42:19.528Z,10.96
2022-09-01T10:43:36.356Z,10.92
2022-09-01T10:44:57.696Z,11.16
2022-09-01T10:45:58.875Z,10.88
2022-09-01T10:47:13.544Z,11.38
2022-09-01T10:48:30.449Z,11.24
2022-09-01T10:49:28.327Z,10.67
2022-09-01T10:50:35.468Z,10.85
2022-09-01T10:51:38.648Z,10.71
2022-09-01T10:52:43.360Z,11.00
2022-09-01T10:53:41.127Z,10.85
2022-09-01T10:54:40.352Z,11.02
2022-09-01T10:56:02.662Z,11.06
2022-09-01T10:57:12.539Z,10.83
2022-09-01T10:59:56.386Z,11.13
2022-09-01T11:02:27.049Z,11.34
2022-09-01T11:03:42.135Z,11.70
2022-09-01T11:04:45.464Z,11.10
2022-09-01T11:06:11.376Z,11.08
2022-09-01T11:07:38.935Z,11.56
2022-09-01T11:08:48.249Z,10.87
2022-09-01T11:10:11.410Z,11.20
2022-09-01T11:11:09.239Z,11.45
2022-09-01T11:12:38.341Z,11.25
2022-09-01T11:13:49.819Z,11.90
2022-09-01T11:14:58.251Z,11.37
2022-09-01T11:16:00.340Z,11.05
2022-09-01T11:17:20.354Z,11.47
2022-09-01T11:18:29.215Z,10.51
2022-09-01T11:19:49.680Z,10.64
2022-09-01T11:20:49.262Z,11.30
2022-09-01T11:21:48.356Z,11.34
2022-09-01T11:22:46.063Z,10.83
2022-09-01T11:23:43.544Z,11.10
2022-09-01T11:24:50.829Z,11.32
2022-09-01T11:27:32.935Z,10.71
2022-09-01T11:28:33.152Z,10.99
2022-09-01T11:29:49.111Z,11.26
2022-09-01T11:30:55.916Z,11.16
2022-09-01T11:31:53.746Z,10.55
2022-09-01T11:32:57.807Z,11.11
2022-09-01T11:34:16.383Z,10.86
2022-09-01T11:35:32.119Z,10.66
2022-09-01T11:36:37.872Z,10.53
2022-09-01T11:37:35.545Z,10.61
2022-09-01T11:38:52.361Z,10.43
2022-09-01T11:39:51.952Z,10.48
2022-09-01T11:40:55.459Z,10.94
2022-09-01T11:42:03.548Z,10.35
2022-09-01T11:43:12.808Z,11.02
2022-09-01T11:44:21.957Z,11.53
2022-09-01T11:45:28.539Z,11.38
2022-09-01T11:46:28.943Z,10.70
2022-09-01T11:47:26.842Z,10.91
2022-09-01T11:48:26.465Z,11.35
2022-09-01T11:49:31.628Z,11.36
2022-09-01T11:50:32.643Z,11.09
2022-09-01T11:51:46.192Z,11.26
2022-09-01T11:52:52.565Z,10.78
2022-09-01T11:53:51.959Z,10.63
2022-09-01T11:54:49.552Z,11.51
2022-09-01T11:55:49.052Z,10.82
2022-09-01T11:56:46.429Z,10.66
2022-09-01T11:57:43.952Z,11.17
2022-09-01T11:58:41.947Z,10.79
2022-09-01T11:59:39.400Z,10.44
2022-09-01T12:00:38.618Z,10.55
2022-09-01T12:01:38.294Z,10.10
2022-09-01T12:02:42.520Z,11.03
2022-09-01T12:03:41.122Z,10.97
2022-09-01T12:04:40.094Z,10.15
2022-09-01T12:05:40.596Z,10.29
2022-09-01T12:06:37.990Z,10.37
2022-09-01T12:07:38.511Z,10.55
2022-09-01T12:08:38.376Z,10.57
2022-09-01T12:09:42.434Z,10.63
2022-09-01T12:10:40.387Z,10.96
2022-09-01T12:11:41.820Z,10.86
2022-09-01T12:12:39.962Z,10.58
2022-09-01T12:13:38.418Z,10.21
2022-09-01T12:15:02.051Z,10.24
2022-09-01T12:16:14.469Z,10.93
2022-09-01T12:17:13.525Z,10.53
2022-09-01T12:18:14.001Z,10.52
2022-09-01T12:19:23.812Z,10.66
2022-09-01T12:20:24.382Z,11.50
2022-09-01T12:21:30.515Z,10.42
2022-09-01T12:22:27.973Z,10.80
2022-09-01T12:23:25.749Z,11.08
2022-09-01T12:24:24.677Z,10.84
2022-09-01T12:25:25.193Z,10.50
2022-09-01T12:26:29.644Z,10.55
2022-09-01T12:27:27.117Z,10.30
2022-09-01T12:28:26.694Z,10.61
2022-09-01T12:29:32.162Z,11.10
2022-09-01T12:30:35.336Z,10.88
2022-09-01T12:31:33.686Z,10.95
2022-09-01T12:32:31.211Z,10.84
2022-09-01T12:33:29.250Z,11.16
2022-09-01T12:34:46.952Z,11.68
2022-09-01T12:35:45.565Z,10.57
2022-09-01T12:36:43.235Z,11.19
2022-09-01T12:37:41.218Z,10.93
2022-09-01T12:38:38.593Z,11.12
2022-09-01T12:39:36.015Z,10.68
2022-09-01T12:40:35.106Z,10.95
2022-09-01T12:41:40.080Z,10.88
2022-09-01T12:42:40.636Z,11.64
2022-09-01T12:43:40.792Z,11.96
2022-09-01T12:44:38.104Z,11.70
2022-09-01T12:45:40.414Z,12.06
2022-09-01T12:46:43.363Z,11.63
2022-09-01T12:47:48.032Z,12.13
2022-09-01T12:48:45.796Z,11.50
2022-09-01T12:49:50.257Z,10.33
2022-09-01T12:50:50.849Z,11.08
2022-09-01T12:51:48.598Z,9.66
2022-09-01T12:52:58.286Z,9.88
2022-09-01T12:53:58.751Z,9.96
2022-09-01T12:54:59.208Z,10.45
2022-09-01T12:56:00.653Z,10.27
2022-09-01T12:56:58.244Z,10.57
2022-09-01T12:57:58.130Z,10.48
2022-09-01T12:59:08.595Z,10.19
2022-09-01T13:00:12.197Z,10.43
2022-09-01T13:01:24.515Z,9.92
2022-09-01T13:02:36.940Z,10.03
2022-09-01T13:03:35.028Z,10.43
2022-09-01T13:04:33.828Z,10.08
2022-09-01T13:05:41.559Z,10.18
2022-09-01T13:06:39.576Z,10.60
2022-09-01T13:07:36.937Z,10.20
2022-09-01T13:08:36.081Z,9.95
2022-09-01T13:09:35.218Z,9.87
2022-09-01T13:10:35.728Z,9.75
2022-09-01T13:12:51.587Z,10.19
2022-09-01T13:13:49.006Z,9.89
2022-09-01T13:14:47.126Z,10.68
2022-09-01T13:15:48.203Z,10.83
2022-09-01T13:16:45.897Z,10.50
2022-09-01T13:17:43.654Z,10.20
2022-09-01T13:19:59.735Z,10.45
2022-09-01T13:20:58.190Z,10.54
2022-09-01T13:21:55.531Z,10.42
2022-09-01T13:22:54.793Z,10.29
2022-09-01T13:23:52.401Z,10.61
2022-09-01T13:24:49.762Z,11.51
2022-09-01T13:25:47.634Z,11.02
2022-09-01T13:28:14.405Z,11.33
2022-09-01T13:29:12.067Z,11.14
2022-09-01T13:30:10.357Z,10.73
2022-09-01T13:32:25.145Z,10.80
2022-09-01T13:33:25.192Z,10.62
2022-09-01T13:34:24.440Z,11.01
2022-09-01T13:35:23.393Z,11.08
2022-09-01T13:37:38.377Z,11.50
2022-09-01T13:38:35.958Z,11.19
2022-09-01T13:39:33.437Z,10.78
2022-09-01T13:40:31.463Z,11.39
2022-09-01T13:41:29.186Z,10.98
2022-09-01T13:42:28.741Z,11.49
2022-09-01T13:43:29.162Z,10.65
2022-09-01T13:44:26.853Z,10.55
2022-09-01T13:45:27.735Z,10.86
2022-09-01T13:46:25.281Z,11.70
2022-09-01T13:47:31.774Z,11.04
2022-09-01T13:49:02.296Z,10.81
2022-09-01T13:51:19.768Z,10.97
2022-09-01T13:52:17.257Z,10.75
2022-09-01T13:53:14.608Z,10.82
2022-09-01T13:54:11.956Z,11.48
2022-09-01T13:55:14.137Z,11.36
2022-09-01T13:56:11.538Z,10.55
2022-09-01T13:57:09.240Z,10.81
2022-09-01T13:58:07.152Z,10.86
2022-09-01T13:59:04.599Z,10.62
2022-09-01T14:00:02.013Z,10.44